createdAt,value
2019-05-10T00:00:30.024Z,0
2019-05-10T00:01:31.635Z,0
2019-05-10T00:02:33.529Z,0
2019-05-10T00:03:35.157Z,0
2019-05-10T00:04:36.756Z,0
2019-05-10T00:05:38.376Z,0
2019-05-10T00:06:39.722Z,0
2019-05-10T00:07:41.128Z,0
2019-05-10T00:08:43.116Z,0
2019-05-10T00:09:45.009Z,0
2019-05-10T00:10:46.607Z,0
2019-05-10T00:11:50.733Z,0
2019-05-10T00:12:52.354Z,0
2019-05-10T00:13:53.974Z,0
2019-05-10T00:14:55.880Z,0
2019-05-10T00:15:57.790Z,0
2019-05-10T00:16:59.426Z,0
2019-05-10T00:18:01.331Z,0
2019-05-10T00:19:03.228Z,0
2019-05-10T00:20:05.127Z,0
2019-05-10T00:21:06.746Z,0
2019-05-10T00:22:08.370Z,0
2019-05-10T00:23:09.991Z,0
2019-05-10T00:24:11.886Z,0
2019-05-10T00:25:13.780Z,0
2019-05-10T00:26:15.678Z,0
2019-05-10T00:27:17.576Z,0
2019-05-10T00:28:19.473Z,0
2019-05-10T00:29:21.075Z,0
2019-05-10T00:30:28.855Z,0
2019-05-10T00:31:30.750Z,0
2019-05-10T00:32:32.381Z,0
2019-05-10T00:33:34.268Z,0
2019-05-10T00:34:36.179Z,0
2019-05-10T00:35:38.070Z,0
2019-05-10T00:36:39.968Z,0
2019-05-10T00:37:41.589Z,0
2019-05-10T00:38:43.488Z,0
2019-05-10T00:39:45.088Z,0
2019-05-10T00:40:46.443Z,0
2019-05-10T00:41:48.336Z,0
2019-05-10T00:42:50.232Z,0
2019-05-10T00:43:51.867Z,0
2019-05-10T00:44:53.774Z,0
2019-05-10T00:45:55.393Z,0
2019-05-10T00:46:57.024Z,0
2019-05-10T00:47:58.919Z,0
2019-05-10T00:49:00.819Z,0
2019-05-10T00:50:02.716Z,0
2019-05-10T00:51:04.618Z,0
2019-05-10T00:52:06.244Z,0
2019-05-10T00:53:07.869Z,0
2019-05-10T00:54:09.198Z,0
2019-05-10T00:55:20.631Z,0
2019-05-10T00:56:22.526Z,0
2019-05-10T00:57:24.128Z,0
2019-05-10T00:58:25.486Z,0
2019-05-10T00:59:27.412Z,0
2019-05-10T01:00:29.035Z,0
2019-05-10T01:01:30.401Z,0
2019-05-10T01:02:31.744Z,0
2019-05-10T01:03:33.640Z,0
2019-05-10T01:04:35.535Z,0
2019-05-10T01:05:37.544Z,0
2019-05-10T01:06:39.159Z,0
2019-05-10T01:07:40.780Z,0
2019-05-10T01:08:42.803Z,0
2019-05-10T01:09:44.421Z,0
2019-05-10T01:10:46.319Z,0
2019-05-10T01:11:48.217Z,0
2019-05-10T01:12:50.115Z,0
2019-05-10T01:13:51.737Z,0
2019-05-10T01:14:53.633Z,0
2019-05-10T01:15:55.261Z,0
2019-05-10T01:16:57.155Z,0
2019-05-10T01:17:58.777Z,0
2019-05-10T01:19:00.398Z,0
2019-05-10T01:20:02.676Z,0
2019-05-10T01:21:04.296Z,0
2019-05-10T01:22:05.643Z,0
2019-05-10T01:23:07.020Z,0
2019-05-10T01:24:08.642Z,0
2019-05-10T01:25:10.535Z,0
2019-05-10T01:26:12.136Z,0
2019-05-10T01:27:14.036Z,0
2019-05-10T01:28:15.116Z,0
2019-05-10T01:29:17.008Z,0
2019-05-10T01:30:18.612Z,0
2019-05-10T01:31:20.225Z,0
2019-05-10T01:32:22.126Z,0
2019-05-10T01:33:23.747Z,0
2019-05-10T01:34:25.643Z,0
2019-05-10T01:35:27.538Z,0
2019-05-10T01:36:29.437Z,0
2019-05-10T01:37:30.764Z,0
2019-05-10T01:38:32.659Z,0
2019-05-10T01:39:34.277Z,0
2019-05-10T01:40:36.195Z,0
2019-05-10T01:41:38.090Z,0
2019-05-10T01:42:39.707Z,0
2019-05-10T01:43:41.625Z,0
2019-05-10T01:44:43.521Z,0
2019-05-10T01:45:45.417Z,0
2019-05-10T01:46:47.313Z,0
2019-05-10T01:47:48.932Z,0
2019-05-10T01:48:50.543Z,0
2019-05-10T01:49:52.441Z,0
2019-05-10T01:50:54.108Z,0
2019-05-10T01:51:55.706Z,0
2019-05-10T01:52:57.073Z,0
2019-05-10T01:53:58.673Z,0
2019-05-10T01:55:00.025Z,0
2019-05-10T01:56:01.932Z,0
2019-05-10T01:57:03.827Z,0
2019-05-10T01:58:05.723Z,0
2019-05-10T01:59:06.804Z,0
2019-05-10T02:00:08.407Z,0
2019-05-10T02:01:10.303Z,0
2019-05-10T02:02:11.921Z,0
2019-05-10T02:03:13.523Z,0
2019-05-10T02:04:18.897Z,0
2019-05-10T02:05:20.517Z,0
2019-05-10T02:06:22.426Z,0
2019-05-10T02:07:24.045Z,0
2019-05-10T02:08:25.665Z,0
2019-05-10T02:09:27.264Z,0
2019-05-10T02:10:29.159Z,0
2019-05-10T02:11:31.058Z,0
2019-05-10T02:12:32.952Z,0
2019-05-10T02:13:34.849Z,0
2019-05-10T02:14:36.745Z,0
2019-05-10T02:15:38.642Z,0
2019-05-10T02:16:40.542Z,0
2019-05-10T02:17:42.442Z,0
2019-05-10T02:18:44.336Z,0
2019-05-10T02:19:45.958Z,0
2019-05-10T02:20:47.304Z,0
2019-05-10T02:21:48.929Z,0
2019-05-10T02:22:50.818Z,0
2019-05-10T02:23:52.425Z,0
2019-05-10T02:24:54.325Z,0
2019-05-10T02:26:10.872Z,0
2019-05-10T02:27:12.766Z,0
2019-05-10T02:28:14.662Z,0
2019-05-10T02:29:16.558Z,0
2019-05-10T02:30:17.902Z,0
2019-05-10T02:31:22.920Z,0
2019-05-10T02:32:24.815Z,0
2019-05-10T02:33:26.434Z,0
2019-05-10T02:34:28.347Z,0
2019-05-10T02:35:29.975Z,0
2019-05-10T02:36:31.871Z,0
2019-05-10T02:37:33.767Z,0
2019-05-10T02:38:35.668Z,0
2019-05-10T02:39:37.272Z,0
2019-05-10T02:40:39.196Z,0
2019-05-10T02:41:41.093Z,0
2019-05-10T02:42:43.003Z,0
2019-05-10T02:43:44.639Z,0
2019-05-10T02:44:46.261Z,0
2019-05-10T02:45:48.157Z,0
2019-05-10T02:46:49.782Z,0
2019-05-10T02:47:51.426Z,0
2019-05-10T02:48:53.324Z,0
2019-05-10T02:49:54.933Z,0
2019-05-10T02:50:56.533Z,0
2019-05-10T02:51:58.146Z,0
2019-05-10T02:53:00.044Z,0
2019-05-10T02:54:01.659Z,0
2019-05-10T02:55:03.334Z,0
2019-05-10T02:56:04.663Z,0
2019-05-10T02:57:06.287Z,0
2019-05-10T02:58:08.182Z,0
2019-05-10T02:59:09.915Z,0
2019-05-10T03:00:11.531Z,0
2019-05-10T03:01:13.217Z,0
2019-05-10T03:02:15.108Z,0
2019-05-10T03:03:17.042Z,0
2019-05-10T03:04:18.396Z,0
2019-05-10T03:05:19.732Z,0
2019-05-10T03:06:21.625Z,0
2019-05-10T03:07:23.522Z,0
2019-05-10T03:08:25.180Z,0
2019-05-10T03:09:26.514Z,0
2019-05-10T03:10:28.405Z,0
2019-05-10T03:11:29.764Z,0
2019-05-10T03:12:31.367Z,0
2019-05-10T03:13:32.993Z,0
2019-05-10T03:14:34.610Z,0
2019-05-10T03:15:36.517Z,0
2019-05-10T03:16:38.542Z,0
2019-05-10T03:17:40.446Z,0
2019-05-10T03:18:42.336Z,0
2019-05-10T03:19:44.237Z,0
2019-05-10T03:20:46.133Z,0
2019-05-10T03:21:48.054Z,0
2019-05-10T03:22:49.676Z,0
2019-05-10T03:23:51.723Z,0
2019-05-10T03:24:53.341Z,0
2019-05-10T03:25:55.250Z,0
2019-05-10T03:26:57.157Z,0
2019-05-10T03:27:58.780Z,0
2019-05-10T03:29:00.675Z,0
2019-05-10T03:30:02.479Z,0
2019-05-10T03:31:03.559Z,0
2019-05-10T03:32:05.491Z,0
2019-05-10T03:33:07.111Z,0
2019-05-10T03:34:08.725Z,0
2019-05-10T03:35:10.830Z,0
2019-05-10T03:36:12.453Z,0
2019-05-10T03:37:14.068Z,0
2019-05-10T03:38:15.395Z,0
2019-05-10T03:39:17.307Z,0
2019-05-10T03:40:18.929Z,0
2019-05-10T03:41:20.827Z,0
2019-05-10T03:42:22.723Z,0
2019-05-10T03:43:24.616Z,0
2019-05-10T03:44:25.979Z,0
2019-05-10T03:45:27.875Z,0
2019-05-10T03:46:29.771Z,0
2019-05-10T03:47:31.391Z,0
2019-05-10T03:48:32.740Z,0
2019-05-10T03:49:34.349Z,0
2019-05-10T03:50:36.060Z,0
2019-05-10T03:51:37.955Z,0
2019-05-10T03:52:39.852Z,0
2019-05-10T03:53:41.748Z,0
2019-05-10T03:54:43.643Z,0
2019-05-10T03:55:45.268Z,0
2019-05-10T03:56:46.891Z,0
2019-05-10T03:57:48.509Z,0
2019-05-10T03:58:50.419Z,0
2019-05-10T03:59:52.321Z,0
2019-05-10T04:00:54.026Z,0
2019-05-10T04:01:55.924Z,0
2019-05-10T04:02:57.580Z,0
2019-05-10T04:03:59.485Z,0
2019-05-10T04:05:01.200Z,0
2019-05-10T04:06:03.158Z,0
2019-05-10T04:07:05.082Z,0
2019-05-10T04:08:06.764Z,0
2019-05-10T04:09:08.659Z,0
2019-05-10T04:10:10.282Z,0
2019-05-10T04:11:11.695Z,0
2019-05-10T04:12:13.294Z,0
2019-05-10T04:13:15.192Z,0
2019-05-10T04:14:17.186Z,0
2019-05-10T04:15:18.808Z,5
2019-05-10T04:16:20.706Z,5
2019-05-10T04:17:22.603Z,5
2019-05-10T04:18:24.497Z,5
2019-05-10T04:19:26.142Z,5
2019-05-10T04:20:28.034Z,5
2019-05-10T04:21:29.647Z,5
2019-05-10T04:22:31.534Z,5
2019-05-10T04:23:32.862Z,5
2019-05-10T04:24:37.815Z,5
2019-05-10T04:25:39.441Z,5
2019-05-10T04:26:41.334Z,5
2019-05-10T04:27:43.233Z,5
2019-05-10T04:28:45.127Z,5
2019-05-10T04:29:46.481Z,5
2019-05-10T04:30:48.101Z,5
2019-05-10T04:31:49.998Z,5
2019-05-10T04:32:51.608Z,5
2019-05-10T04:33:53.240Z,5
2019-05-10T04:34:55.143Z,11
2019-05-10T04:35:56.470Z,11
2019-05-10T04:36:58.092Z,11
2019-05-10T04:38:00.146Z,11
2019-05-10T04:39:02.044Z,11
2019-05-10T04:40:03.674Z,11
2019-05-10T04:41:05.567Z,11
2019-05-10T04:42:06.913Z,11
2019-05-10T04:43:08.812Z,11
2019-05-10T04:44:10.419Z,11
2019-05-10T04:45:12.021Z,11
2019-05-10T04:46:14.009Z,11
2019-05-10T04:47:15.964Z,11
2019-05-10T04:48:17.319Z,11
2019-05-10T04:49:18.645Z,11
2019-05-10T04:50:20.263Z,11
2019-05-10T04:51:22.160Z,11
2019-05-10T04:52:24.057Z,11
2019-05-10T04:53:25.954Z,16
2019-05-10T04:54:27.855Z,16
2019-05-10T04:55:29.486Z,16
2019-05-10T04:56:31.479Z,22
2019-05-10T04:57:52.293Z,16
2019-05-10T04:58:54.190Z,22
2019-05-10T04:59:55.817Z,50
2019-05-10T05:00:57.715Z,16
2019-05-10T05:01:59.343Z,45
2019-05-10T05:03:01.320Z,22
2019-05-10T05:04:03.239Z,16
2019-05-10T05:05:04.579Z,22
2019-05-10T05:06:06.199Z,22
2019-05-10T05:07:08.094Z,22
2019-05-10T05:08:09.719Z,28
2019-05-10T05:09:11.053Z,45
2019-05-10T05:10:12.952Z,61
2019-05-10T05:11:14.855Z,61
2019-05-10T05:12:16.758Z,45
2019-05-10T05:13:18.691Z,28
2019-05-10T05:14:20.313Z,50
2019-05-10T05:15:21.937Z,61
2019-05-10T05:16:23.623Z,61
2019-05-10T05:17:24.697Z,61
2019-05-10T05:18:26.297Z,67
2019-05-10T05:19:28.193Z,67
2019-05-10T05:20:29.797Z,67
2019-05-10T05:21:31.694Z,67
2019-05-10T05:22:33.663Z,67
2019-05-10T05:23:35.015Z,67
2019-05-10T05:24:36.629Z,67
2019-05-10T05:25:42.912Z,67
2019-05-10T05:26:44.537Z,67
2019-05-10T05:27:46.431Z,67
2019-05-10T05:28:48.054Z,67
2019-05-10T05:29:49.675Z,67
2019-05-10T05:30:51.574Z,67
2019-05-10T05:32:04.489Z,67
2019-05-10T05:33:06.088Z,67
2019-05-10T05:34:07.713Z,67
2019-05-10T05:35:09.336Z,67
2019-05-10T05:36:11.235Z,67
2019-05-10T05:37:13.133Z,67
2019-05-10T05:38:15.032Z,67
2019-05-10T05:39:16.657Z,73
2019-05-10T05:40:18.259Z,73
2019-05-10T05:41:20.170Z,73
2019-05-10T05:42:29.940Z,73
2019-05-10T05:43:31.570Z,73
2019-05-10T05:44:33.258Z,73
2019-05-10T05:45:36.815Z,73
2019-05-10T05:46:38.712Z,73
2019-05-10T05:47:46.144Z,56
2019-05-10T05:48:51.915Z,67
2019-05-10T05:49:53.816Z,67
2019-05-10T05:50:55.451Z,73
2019-05-10T05:51:57.487Z,67
2019-05-10T05:52:59.444Z,73
2019-05-10T05:54:05.691Z,39
2019-05-10T05:55:07.319Z,50
2019-05-10T05:56:15.730Z,56
2019-05-10T05:57:17.063Z,61
2019-05-10T05:58:28.524Z,61
2019-05-10T05:59:30.426Z,67
2019-05-10T06:00:44.489Z,45
2019-05-10T06:01:46.680Z,67
2019-05-10T06:03:29.589Z,61
2019-05-10T06:04:32.422Z,67
2019-05-10T06:05:38.735Z,67
2019-05-10T06:06:41.456Z,67
2019-05-10T06:07:42.812Z,67
2019-05-10T06:08:44.435Z,67
2019-05-10T06:09:46.093Z,67
2019-05-10T06:11:01.426Z,67
2019-05-10T06:12:14.253Z,67
2019-05-10T06:13:16.728Z,67
2019-05-10T06:14:18.759Z,61
2019-05-10T06:15:32.267Z,61
2019-05-10T06:16:34.127Z,61
2019-05-10T06:17:35.481Z,61
2019-05-10T06:18:47.189Z,61
2019-05-10T06:19:49.141Z,61
2019-05-10T06:20:51.044Z,61
2019-05-10T06:22:06.891Z,61
2019-05-10T06:23:08.690Z,56
2019-05-10T06:24:16.977Z,56
2019-05-10T06:25:37.162Z,56
2019-05-10T06:26:39.728Z,56
2019-05-10T06:27:44.282Z,56
2019-05-10T06:29:17.193Z,50
2019-05-10T06:30:19.728Z,56
2019-05-10T06:31:21.754Z,56
2019-05-10T06:32:23.456Z,50
2019-05-10T06:33:25.061Z,50
2019-05-10T06:34:31.767Z,50
2019-05-10T06:35:33.950Z,56
2019-05-10T06:36:35.868Z,50
2019-05-10T06:37:37.493Z,45
2019-05-10T06:38:39.397Z,50
2019-05-10T06:39:41.300Z,50
2019-05-10T06:40:49.168Z,50
2019-05-10T06:41:59.049Z,45
2019-05-10T06:43:00.951Z,50
2019-05-10T06:44:02.576Z,50
2019-05-10T06:45:16.933Z,50
2019-05-10T06:46:18.574Z,50
2019-05-10T06:47:23.385Z,50
2019-05-10T06:48:34.716Z,50
2019-05-10T06:49:52.359Z,50
2019-05-10T06:50:54.117Z,50
2019-05-10T06:51:55.742Z,50
2019-05-10T06:53:11.903Z,45
2019-05-10T06:54:13.796Z,50
2019-05-10T06:55:15.422Z,50
2019-05-10T06:56:17.062Z,50
2019-05-10T06:57:20.781Z,50
2019-05-10T06:58:22.409Z,50
2019-05-10T06:59:27.096Z,50
2019-05-10T07:00:28.710Z,50
2019-05-10T07:01:30.625Z,50
2019-05-10T07:02:33.735Z,50
2019-05-10T07:03:35.637Z,50
2019-05-10T07:04:42.447Z,56
2019-05-10T07:05:44.343Z,56
2019-05-10T07:06:46.241Z,50
2019-05-10T07:07:47.931Z,50
2019-05-10T07:09:00.393Z,50
2019-05-10T07:10:25.751Z,50
2019-05-10T07:11:27.674Z,56
2019-05-10T07:12:31.790Z,50
2019-05-10T07:13:33.400Z,50
2019-05-10T07:14:34.455Z,50
2019-05-10T07:15:45.566Z,50
2019-05-10T07:16:47.189Z,50
2019-05-10T07:17:49.088Z,50
2019-05-10T07:19:02.224Z,50
2019-05-10T07:20:04.210Z,50
2019-05-10T07:21:09.484Z,50
2019-05-10T07:22:11.662Z,50
2019-05-10T07:23:13.290Z,50
2019-05-10T07:24:27.684Z,45
2019-05-10T07:25:29.587Z,45
2019-05-10T07:26:31.488Z,45
2019-05-10T07:27:39.789Z,50
2019-05-10T07:28:41.690Z,50
2019-05-10T07:29:47.092Z,45
2019-05-10T07:30:48.424Z,45
2019-05-10T07:31:50.326Z,45
2019-05-10T07:33:02.742Z,45
2019-05-10T07:34:09.604Z,50
2019-05-10T07:35:11.576Z,50
2019-05-10T07:36:30.774Z,50
2019-05-10T07:37:32.582Z,50
2019-05-10T07:38:34.233Z,50
2019-05-10T07:39:35.567Z,61
2019-05-10T07:40:37.586Z,56
2019-05-10T07:41:39.617Z,56
2019-05-10T07:42:48.104Z,50
2019-05-10T07:43:50.014Z,56
2019-05-10T07:44:51.905Z,50
2019-05-10T07:46:08.988Z,50
2019-05-10T07:47:11.014Z,50
2019-05-10T07:48:12.999Z,33
2019-05-10T07:49:14.971Z,56
2019-05-10T07:50:16.768Z,50
2019-05-10T07:51:28.540Z,50
2019-05-10T07:52:30.699Z,50
2019-05-10T07:53:32.776Z,45
2019-05-10T07:54:48.707Z,45
2019-05-10T07:55:50.396Z,45
2019-05-10T07:56:52.068Z,45
2019-05-10T07:57:58.708Z,50
2019-05-10T07:59:02.238Z,50
2019-05-10T08:00:06.542Z,56
2019-05-10T08:01:08.542Z,56
2019-05-10T08:02:15.955Z,50
2019-05-10T08:03:24.977Z,50
2019-05-10T08:04:34.753Z,56
2019-05-10T08:05:36.116Z,56
2019-05-10T08:06:52.811Z,56
2019-05-10T08:07:53.894Z,56
2019-05-10T08:09:09.732Z,56
2019-05-10T08:10:11.746Z,56
2019-05-10T08:11:13.896Z,50
2019-05-10T08:12:15.285Z,50
2019-05-10T08:13:28.207Z,50
2019-05-10T08:14:30.245Z,50
2019-05-10T08:15:38.790Z,50
2019-05-10T08:16:40.688Z,45
2019-05-10T08:17:51.225Z,50
2019-05-10T08:19:02.961Z,45
2019-05-10T08:20:19.859Z,45
2019-05-10T08:21:27.564Z,50
2019-05-10T08:22:46.808Z,50
2019-05-10T08:23:48.710Z,50
2019-05-10T08:24:57.483Z,50
2019-05-10T08:25:59.095Z,50
2019-05-10T08:27:16.077Z,45
2019-05-10T08:28:17.706Z,50
2019-05-10T08:29:19.056Z,45
2019-05-10T08:30:32.919Z,45
2019-05-10T08:31:56.206Z,45
2019-05-10T08:33:15.141Z,45
2019-05-10T08:34:17.035Z,45
2019-05-10T08:35:19.816Z,45
2019-05-10T08:36:23.429Z,45
2019-05-10T08:37:38.970Z,45
2019-05-10T08:39:13.182Z,45
2019-05-10T08:40:19.577Z,50
2019-05-10T08:41:23.532Z,50
2019-05-10T08:43:04.486Z,50
2019-05-10T08:44:24.606Z,50
2019-05-10T08:45:25.958Z,50
2019-05-10T08:46:44.653Z,50
2019-05-10T08:47:46.006Z,50
2019-05-10T08:48:54.532Z,50
2019-05-10T08:50:56.554Z,50
2019-05-10T08:51:58.737Z,50
2019-05-10T08:53:17.361Z,50
2019-05-10T08:54:19.267Z,50
2019-05-10T08:55:23.598Z,50
2019-05-10T08:56:25.554Z,50
2019-05-10T08:57:27.456Z,50
2019-05-10T08:58:38.293Z,50
2019-05-10T08:59:39.920Z,50
2019-05-10T09:01:30.513Z,50
2019-05-10T09:02:33.895Z,50
2019-05-10T09:03:35.248Z,50
2019-05-10T09:04:53.323Z,50
2019-05-10T09:05:55.224Z,50
2019-05-10T09:07:03.476Z,50
2019-05-10T09:08:27.197Z,50
2019-05-10T09:09:52.450Z,50
2019-05-10T09:10:54.480Z,50
2019-05-10T09:12:12.039Z,50
2019-05-10T09:13:14.682Z,50
2019-05-10T09:14:25.109Z,50
2019-05-10T09:15:27.025Z,56
2019-05-10T09:16:57.096Z,61
2019-05-10T09:18:08.699Z,56
2019-05-10T09:19:12.870Z,50
2019-05-10T09:20:27.384Z,50
2019-05-10T09:21:28.731Z,56
2019-05-10T09:22:39.175Z,56
2019-05-10T09:23:43.101Z,61
2019-05-10T09:24:53.563Z,67
2019-05-10T09:25:55.467Z,61
2019-05-10T09:26:58.602Z,56
2019-05-10T09:28:17.295Z,56
2019-05-10T09:29:18.898Z,56
2019-05-10T09:30:22.654Z,56
2019-05-10T09:31:27.340Z,50
2019-05-10T09:32:33.730Z,56
2019-05-10T09:33:35.332Z,56
2019-05-10T09:34:36.407Z,56
2019-05-10T09:35:55.309Z,50
2019-05-10T09:36:56.981Z,56
2019-05-10T09:37:59.217Z,56
2019-05-10T09:39:03.120Z,56
2019-05-10T09:40:14.233Z,56
2019-05-10T09:41:15.856Z,50
2019-05-10T09:42:43.916Z,50
2019-05-10T09:43:54.513Z,50
2019-05-10T09:44:56.411Z,50
2019-05-10T09:45:58.310Z,50
2019-05-10T09:47:04.205Z,50
2019-05-10T09:48:06.113Z,56
2019-05-10T09:49:19.012Z,56
2019-05-10T09:50:23.428Z,56
2019-05-10T09:51:33.727Z,56
2019-05-10T09:52:35.631Z,56
2019-05-10T09:53:39.846Z,56
2019-05-10T09:54:41.742Z,56
2019-05-10T09:56:03.500Z,50
2019-05-10T09:57:05.135Z,45
2019-05-10T09:58:09.518Z,45
2019-05-10T09:59:10.870Z,50
2019-05-10T10:00:12.473Z,50
2019-05-10T10:01:22.618Z,45
2019-05-10T10:02:37.212Z,50
2019-05-10T10:03:48.105Z,50
2019-05-10T10:04:49.729Z,45
2019-05-10T10:06:11.624Z,50
2019-05-10T10:07:13.530Z,45
2019-05-10T10:08:15.627Z,50
2019-05-10T10:09:19.126Z,50
2019-05-10T10:10:33.463Z,50
2019-05-10T10:11:35.360Z,50
2019-05-10T10:12:38.821Z,50
2019-05-10T10:14:02.393Z,56
2019-05-10T10:15:03.787Z,56
2019-05-10T10:16:15.826Z,50
2019-05-10T10:17:21.673Z,56
2019-05-10T10:18:29.365Z,56
2019-05-10T10:19:30.712Z,61
2019-05-10T10:20:48.253Z,61
2019-05-10T10:21:50.165Z,67
2019-05-10T10:22:56.015Z,67
2019-05-10T10:24:15.418Z,67
2019-05-10T10:25:19.192Z,56
2019-05-10T10:26:23.641Z,50
2019-05-10T10:27:39.911Z,50
2019-05-10T10:28:41.536Z,50
2019-05-10T10:29:43.440Z,50
2019-05-10T10:30:50.181Z,56
2019-05-10T10:32:00.541Z,56
2019-05-10T10:33:25.261Z,56
2019-05-10T10:34:42.923Z,50
2019-05-10T10:35:44.963Z,56
2019-05-10T10:36:48.873Z,45
2019-05-10T10:37:49.973Z,45
2019-05-10T10:38:51.877Z,45
2019-05-10T10:40:08.794Z,50
2019-05-10T10:41:10.588Z,50
2019-05-10T10:42:14.645Z,50
2019-05-10T10:43:18.392Z,50
2019-05-10T10:44:19.998Z,45
2019-05-10T10:45:21.906Z,45
2019-05-10T10:46:23.806Z,39
2019-05-10T10:47:33.348Z,45
2019-05-10T10:48:36.732Z,50
2019-05-10T10:49:39.040Z,56
2019-05-10T10:50:59.153Z,61
2019-05-10T10:52:05.523Z,61
2019-05-10T10:53:08.991Z,61
2019-05-10T10:54:10.439Z,56
2019-05-10T10:55:14.443Z,50
2019-05-10T10:56:18.584Z,45
2019-05-10T10:57:20.485Z,39
2019-05-10T10:58:22.385Z,39
2019-05-10T10:59:23.715Z,39
2019-05-10T11:00:28.136Z,39
2019-05-10T11:02:33.535Z,39
2019-05-10T11:03:35.789Z,39
2019-05-10T11:04:49.763Z,39
2019-05-10T11:05:51.662Z,45
2019-05-10T11:07:12.144Z,45
2019-05-10T11:08:14.037Z,39
2019-05-10T11:09:15.659Z,45
2019-05-10T11:10:23.307Z,45
2019-05-10T11:11:30.301Z,45
2019-05-10T11:12:41.826Z,50
2019-05-10T11:14:07.735Z,45
2019-05-10T11:15:22.914Z,45
2019-05-10T11:16:28.535Z,39
2019-05-10T11:17:32.270Z,39
2019-05-10T11:18:33.333Z,45
2019-05-10T11:19:34.939Z,39
2019-05-10T11:20:36.561Z,39
2019-05-10T11:21:38.461Z,39
2019-05-10T11:22:54.072Z,45
2019-05-10T11:23:55.975Z,50
2019-05-10T11:25:13.282Z,56
2019-05-10T11:26:14.611Z,56
2019-05-10T11:27:18.658Z,50
2019-05-10T11:28:22.129Z,50
2019-05-10T11:29:31.744Z,56
2019-05-10T11:30:33.858Z,50
2019-05-10T11:31:35.480Z,50
2019-05-10T11:32:37.380Z,45
2019-05-10T11:33:53.488Z,39
2019-05-10T11:34:58.129Z,45
2019-05-10T11:36:12.029Z,45
2019-05-10T11:37:30.842Z,50
2019-05-10T11:38:33.218Z,56
2019-05-10T11:39:50.310Z,61
2019-05-10T11:40:52.386Z,61
2019-05-10T11:42:08.086Z,61
2019-05-10T11:43:09.987Z,56
2019-05-10T11:44:13.230Z,56
2019-05-10T11:45:14.853Z,61
2019-05-10T11:46:16.478Z,61
2019-05-10T11:47:30.980Z,61
2019-05-10T11:48:42.923Z,56
2019-05-10T11:49:44.523Z,56
2019-05-10T11:50:46.155Z,61
2019-05-10T11:52:02.100Z,61
2019-05-10T11:53:17.843Z,61
2019-05-10T11:54:22.190Z,67
2019-05-10T11:55:23.830Z,61
2019-05-10T11:56:28.868Z,61
2019-05-10T11:57:34.001Z,56
2019-05-10T11:58:55.984Z,50
2019-05-10T11:59:57.644Z,50
2019-05-10T12:05:20.385Z,50
2019-05-10T12:08:25.201Z,56
2019-05-10T12:09:26.821Z,50
2019-05-10T12:10:28.447Z,50
2019-05-10T12:11:52.940Z,50
2019-05-10T12:13:25.285Z,50
2019-05-10T12:14:26.993Z,50
2019-05-10T12:15:32.674Z,56
2019-05-10T12:16:34.870Z,56
2019-05-10T12:17:36.479Z,56
2019-05-10T12:21:09.218Z,56
2019-05-10T12:22:16.974Z,50
2019-05-10T12:27:10.726Z,50
2019-05-10T12:28:35.441Z,39
2019-05-10T12:29:37.513Z,39
2019-05-10T12:30:41.395Z,45
2019-05-10T12:31:53.220Z,50
2019-05-10T12:33:25.430Z,50
2019-05-10T12:34:30.896Z,50
2019-05-10T12:35:47.818Z,50
2019-05-10T12:36:52.139Z,50
2019-05-10T12:37:55.221Z,50
2019-05-10T12:39:02.064Z,56
2019-05-10T12:40:16.282Z,50
2019-05-10T12:41:18.203Z,45
2019-05-10T12:42:22.905Z,45
2019-05-10T12:43:24.238Z,39
2019-05-10T12:44:26.134Z,39
2019-05-10T12:45:28.034Z,45
2019-05-10T12:46:32.120Z,45
2019-05-10T12:47:35.230Z,45
2019-05-10T12:48:37.522Z,45
2019-05-10T12:49:41.515Z,50
2019-05-10T12:50:45.509Z,56
2019-05-10T12:51:47.129Z,56
2019-05-10T12:53:18.427Z,50
2019-05-10T12:54:26.537Z,56
2019-05-10T12:55:27.914Z,50
2019-05-10T12:56:46.122Z,45
2019-05-10T12:57:47.873Z,45
2019-05-10T12:59:00.622Z,45
2019-05-10T13:00:12.959Z,50
2019-05-10T13:01:14.917Z,56
2019-05-10T13:02:16.816Z,61
2019-05-10T13:03:34.061Z,61
2019-05-10T13:04:46.975Z,61
2019-05-10T13:05:54.746Z,56
2019-05-10T13:06:56.372Z,56
2019-05-10T13:07:58.270Z,56
2019-05-10T13:08:59.326Z,50
2019-05-10T13:10:10.484Z,45
2019-05-10T13:11:11.832Z,39
2019-05-10T13:12:13.733Z,45
2019-05-10T13:13:30.533Z,45
2019-05-10T13:15:04.272Z,39
2019-05-10T13:16:13.087Z,39
2019-05-10T13:17:18.458Z,39
2019-05-10T13:18:53.118Z,50
2019-05-10T13:20:01.642Z,50
2019-05-10T13:21:07.111Z,50
2019-05-10T13:22:09.391Z,56
2019-05-10T13:23:19.539Z,50
2019-05-10T13:24:20.897Z,56
2019-05-10T13:25:22.797Z,61
2019-05-10T13:26:24.703Z,61
2019-05-10T13:27:26.055Z,61
2019-05-10T13:28:28.125Z,61
2019-05-10T13:29:30.054Z,61
2019-05-10T13:30:31.951Z,61
2019-05-10T13:31:44.545Z,61
2019-05-10T13:32:46.172Z,61
2019-05-10T13:33:47.806Z,56
2019-05-10T13:34:49.426Z,56
2019-05-10T13:35:59.214Z,56
2019-05-10T13:37:00.560Z,61
2019-05-10T13:38:07.535Z,61
2019-05-10T13:39:09.437Z,56
2019-05-10T13:40:11.336Z,56
2019-05-10T13:41:17.729Z,56
2019-05-10T13:42:19.982Z,61
2019-05-10T13:43:29.407Z,61
2019-05-10T13:44:31.304Z,61
2019-05-10T13:45:40.606Z,61
2019-05-10T13:46:41.947Z,56
2019-05-10T13:47:43.834Z,56
2019-05-10T13:48:45.471Z,56
2019-05-10T13:49:50.226Z,56
2019-05-10T13:50:52.135Z,56
2019-05-10T13:51:54.035Z,56
2019-05-10T13:52:55.948Z,56
2019-05-10T13:54:05.593Z,56
2019-05-10T13:55:07.220Z,56
2019-05-10T13:56:08.862Z,56
2019-05-10T13:57:10.761Z,50
2019-05-10T13:58:12.387Z,50
2019-05-10T13:59:19.152Z,50
2019-05-10T14:00:21.052Z,56
2019-05-10T14:01:22.405Z,56
2019-05-10T14:02:35.871Z,56
2019-05-10T14:04:03.700Z,50
2019-05-10T14:05:05.334Z,50
2019-05-10T14:06:06.663Z,45
2019-05-10T14:07:07.448Z,45
2019-05-10T14:08:09.347Z,39
2019-05-10T14:09:11.051Z,39
2019-05-10T14:10:23.191Z,39
2019-05-10T14:11:25.552Z,45
2019-05-10T14:12:27.178Z,45
2019-05-10T14:13:29.075Z,45
2019-05-10T14:14:30.677Z,45
2019-05-10T14:15:32.301Z,45
2019-05-10T14:16:33.632Z,45
2019-05-10T14:17:35.532Z,45
2019-05-10T14:18:37.156Z,45
2019-05-10T14:19:39.065Z,39
2019-05-10T14:20:40.963Z,39
2019-05-10T14:21:42.587Z,39
2019-05-10T14:22:59.665Z,39
2019-05-10T14:24:01.567Z,39
2019-05-10T14:25:03.465Z,39
2019-05-10T14:26:18.646Z,45
2019-05-10T14:27:20.254Z,45
2019-05-10T14:28:22.216Z,50
2019-05-10T14:29:37.683Z,50
2019-05-10T14:30:39.305Z,45
2019-05-10T14:31:41.258Z,45
2019-05-10T14:32:42.338Z,45
2019-05-10T14:34:16.558Z,39
2019-05-10T14:35:25.238Z,39
2019-05-10T14:36:27.151Z,45
2019-05-10T14:37:29.064Z,56
2019-05-10T14:38:30.695Z,56
2019-05-10T14:39:32.298Z,50
2019-05-10T14:40:34.206Z,50
2019-05-10T14:41:39.514Z,56
2019-05-10T14:42:41.478Z,50
2019-05-10T14:43:43.387Z,45
2019-05-10T14:44:45.079Z,45
2019-05-10T14:45:46.683Z,50
2019-05-10T14:46:48.305Z,45
2019-05-10T14:47:51.834Z,45
2019-05-10T14:48:53.479Z,45
2019-05-10T14:49:55.376Z,45
2019-05-10T14:51:11.612Z,45
2019-05-10T14:52:14.916Z,39
2019-05-10T14:53:27.878Z,39
2019-05-10T14:54:56.897Z,39
2019-05-10T14:55:58.713Z,45
2019-05-10T14:57:00.313Z,45
2019-05-10T14:58:01.917Z,45
2019-05-10T14:59:03.546Z,45
2019-05-10T15:00:05.613Z,45
2019-05-10T15:01:07.381Z,45
2019-05-10T15:02:09.001Z,50
2019-05-10T15:03:10.899Z,45
2019-05-10T15:04:17.934Z,45
2019-05-10T15:05:25.319Z,45
2019-05-10T15:06:39.293Z,45
2019-05-10T15:07:40.914Z,45
2019-05-10T15:08:42.595Z,50
2019-05-10T15:09:44.218Z,50
2019-05-10T15:10:46.120Z,50
2019-05-10T15:11:47.174Z,45
2019-05-10T15:12:49.078Z,45
2019-05-10T15:13:50.532Z,45
2019-05-10T15:14:52.429Z,45
2019-05-10T15:15:54.050Z,45
2019-05-10T15:16:55.408Z,50
2019-05-10T15:18:04.693Z,45
2019-05-10T15:19:06.295Z,39
2019-05-10T15:20:08.197Z,39
2019-05-10T15:21:10.097Z,39
2019-05-10T15:22:11.895Z,39
2019-05-10T15:23:13.794Z,45
2019-05-10T15:24:15.695Z,45
2019-05-10T15:25:17.318Z,45
2019-05-10T15:26:18.669Z,45
2019-05-10T15:27:25.098Z,45
2019-05-10T15:28:26.798Z,33
2019-05-10T15:29:28.135Z,33
2019-05-10T15:30:30.032Z,33
2019-05-10T15:31:32.466Z,28
2019-05-10T15:32:34.365Z,28
2019-05-10T15:33:36.267Z,28
2019-05-10T15:34:37.931Z,33
2019-05-10T15:35:39.829Z,39
2019-05-10T15:36:41.734Z,45
2019-05-10T15:37:49.391Z,50
2019-05-10T15:38:53.722Z,45
2019-05-10T15:40:00.374Z,39
2019-05-10T15:41:02.558Z,39
2019-05-10T15:42:04.458Z,39
2019-05-10T15:43:19.839Z,33
2019-05-10T15:44:34.574Z,33
2019-05-10T15:45:36.195Z,33
2019-05-10T15:46:43.372Z,33
2019-05-10T15:48:04.509Z,33
2019-05-10T15:49:06.177Z,33